sensor_id;sensor_type;location;lat;lon;timestamp;pressure;altitude;pressure_sealevel;temperature;humidity
16481;BME280;44634;54.110;12.138;2022-10-17T00:01:42;101670.75;;;13.58;100.00
16481;BME280;44634;54.110;12.138;2022-10-17T00:04:10;101649.13;;;13.62;100.00
16481;BME280;44634;54.110;12.138;2022-10-17T00:06:39;101665.63;;;13.15;100.00
16481;BME280;44634;54.110;12.138;2022-10-17T00:09:07;101734.44;;;12.65;100.00
16481;BME280;44634;54.110;12.138;2022-10-17T00:11:35;101807.03;;;12.75;100.00
16481;BME280;44634;54.110;12.138;2022-10-17T00:14:03;101851.59;;;12.92;100.00
16481;BME280;44634;54.110;12.138;2022-10-17T00:16:34;101862.88;;;12.62;100.00
16481;BME280;44634;54.110;12.138;2022-10-17T00:19:03;101882.16;;;12.75;100.00
16481;BME280;44634;54.110;12.138;2022-10-17T00:21:32;101891.56;;;12.79;100.00
16481;BME280;44634;54.110;12.138;2022-10-17T00:24:01;101904.72;;;12.70;100.00
16481;BME280;44634;54.110;12.138;2022-10-17T00:26:29;101913.88;;;12.88;100.00
16481;BME280;44634;54.110;12.138;2022-10-17T00:28:57;101825.22;;;13.64;100.00
16481;BME280;44634;54.110;12.138;2022-10-17T00:31:25;101727.63;;;13.46;100.00
16481;BME280;44634;54.110;12.138;2022-10-17T00:33:52;101701.81;;;13.16;100.00
16481;BME280;44634;54.110;12.138;2022-10-17T00:36:21;101752.00;;;12.77;100.00
16481;BME280;44634;54.110;12.138;2022-10-17T00:38:51;101771.50;;;13.19;100.00
16481;BME280;44634;54.110;12.138;2022-10-17T00:41:23;101763.72;;;13.27;100.00
16481;BME280;44634;54.110;12.138;2022-10-17T00:43:54;101743.81;;;13.63;100.00
16481;BME280;44634;54.110;12.138;2022-10-17T00:46:26;101710.38;;;13.70;100.00
16481;BME280;44634;54.110;12.138;2022-10-17T00:48:58;101715.41;;;13.64;100.00
16481;BME280;44634;54.110;12.138;2022-10-17T00:51:30;101677.47;;;13.52;100.00
16481;BME280;44634;54.110;12.138;2022-10-17T00:54:00;101680.88;;;13.64;100.00
16481;BME280;44634;54.110;12.138;2022-10-17T00:56:31;101716.81;;;13.17;100.00
16481;BME280;44634;54.110;12.138;2022-10-17T00:58:59;101725.53;;;13.19;100.00
16481;BME280;44634;54.110;12.138;2022-10-17T01:01:27;101711.06;;;13.63;100.00
16481;BME280;44634;54.110;12.138;2022-10-17T01:03:55;101668.72;;;13.71;100.00
16481;BME280;44634;54.110;12.138;2022-10-17T01:06:23;101659.41;;;13.96;100.00
16481;BME280;44634;54.110;12.138;2022-10-17T01:08:51;101637.88;;;14.09;100.00
16481;BME280;44634;54.110;12.138;2022-10-17T01:11:26;101624.88;;;14.25;100.00
16481;BME280;44634;54.110;12.138;2022-10-17T01:14:05;101598.44;;;14.33;100.00
16481;BME280;44634;54.110;12.138;2022-10-17T01:16:41;101605.81;;;13.91;100.00
16481;BME280;44634;54.110;12.138;2022-10-17T01:19:30;101609.59;;;14.17;100.00
16481;BME280;44634;54.110;12.138;2022-10-17T01:22:06;101597.00;;;14.29;100.00
16481;BME280;44634;54.110;12.138;2022-10-17T01:24:46;101601.19;;;13.93;100.00
16481;BME280;44634;54.110;12.138;2022-10-17T01:27:36;101644.47;;;13.55;100.00
16481;BME280;44634;54.110;12.138;2022-10-17T01:30:40;101663.84;;;13.76;100.00
16481;BME280;44634;54.110;12.138;2022-10-17T01:33:13;101650.19;;;13.90;100.00
16481;BME280;44634;54.110;12.138;2022-10-17T01:35:47;101624.47;;;14.20;100.00
16481;BME280;44634;54.110;12.138;2022-10-17T01:38:21;101627.50;;;13.96;100.00
16481;BME280;44634;54.110;12.138;2022-10-17T01:40:57;101637.59;;;13.92;100.00
16481;BME280;44634;54.110;12.138;2022-10-17T01:43:31;101633.25;;;14.01;100.00
16481;BME280;44634;54.110;12.138;2022-10-17T01:46:08;101632.38;;;13.81;100.00
16481;BME280;44634;54.110;12.138;2022-10-17T01:48:41;101627.78;;;13.93;100.00
16481;BME280;44634;54.110;12.138;2022-10-17T01:51:16;101632.16;;;14.04;100.00
16481;BME280;44634;54.110;12.138;2022-10-17T01:53:50;101635.50;;;14.25;100.00
16481;BME280;44634;54.110;12.138;2022-10-17T01:56:20;101631.34;;;14.32;100.00
16481;BME280;44634;54.110;12.138;2022-10-17T01:58:54;101619.13;;;14.10;100.00
16481;BME280;44634;54.110;12.138;2022-10-17T02:01:28;101639.28;;;14.13;100.00
16481;BME280;44634;54.110;12.138;2022-10-17T02:03:58;101665.16;;;13.91;100.00
16481;BME280;44634;54.110;12.138;2022-10-17T02:06:27;101662.38;;;14.12;100.00
16481;BME280;44634;54.110;12.138;2022-10-17T02:08:55;101670.22;;;14.04;100.00
16481;BME280;44634;54.110;12.138;2022-10-17T02:11:24;101675.09;;;13.99;100.00
16481;BME280;44634;54.110;12.138;2022-10-17T02:14:12;101673.78;;;13.84;100.00
16481;BME280;44634;54.110;12.138;2022-10-17T02:16:50;101657.03;;;13.93;100.00
16481;BME280;44634;54.110;12.138;2022-10-17T02:19:33;101697.66;;;13.74;100.00
16481;BME280;44634;54.110;12.138;2022-10-17T02:22:15;101708.81;;;13.98;100.00
16481;BME280;44634;54.110;12.138;2022-10-17T02:24:48;101697.69;;;14.43;100.00
16481;BME280;44634;54.110;12.138;2022-10-17T02:27:24;101699.06;;;14.18;100.00
16481;BME280;44634;54.110;12.138;2022-10-17T02:30:00;101704.19;;;14.00;100.00
16481;BME280;44634;54.110;12.138;2022-10-17T02:32:35;101697.78;;;14.13;100.00
16481;BME280;44634;54.110;12.138;2022-10-17T02:35:08;101687.28;;;14.11;100.00
16481;BME280;44634;54.110;12.138;2022-10-17T02:37:37;101686.59;;;14.09;100.00
16481;BME280;44634;54.110;12.138;2022-10-17T02:40:07;101707.31;;;14.06;100.00
16481;BME280;44634;54.110;12.138;2022-10-17T02:42:37;101725.78;;;14.07;100.00
16481;BME280;44634;54.110;12.138;2022-10-17T02:45:06;101742.41;;;13.99;100.00
16481;BME280;44634;54.110;12.138;2022-10-17T02:47:42;101752.66;;;14.14;100.00
16481;BME280;44634;54.110;12.138;2022-10-17T02:50:15;101738.13;;;14.18;100.00
16481;BME280;44634;54.110;12.138;2022-10-17T02:52:46;101705.16;;;14.49;100.00
16481;BME280;44634;54.110;12.138;2022-10-17T02:55:17;101683.59;;;14.62;100.00
16481;BME280;44634;54.110;12.138;2022-10-17T02:57:48;101670.44;;;14.51;100.00
16481;BME280;44634;54.110;12.138;2022-10-17T03:00:19;101688.63;;;14.75;100.00
16481;BME280;44634;54.110;12.138;2022-10-17T03:02:51;101653.84;;;14.86;100.00
16481;BME280;44634;54.110;12.138;2022-10-17T03:05:21;101688.16;;;14.31;100.00
16481;BME280;44634;54.110;12.138;2022-10-17T03:07:50;101699.41;;;14.54;100.00
16481;BME280;44634;54.110;12.138;2022-10-17T03:10:18;101711.31;;;14.50;100.00
16481;BME280;44634;54.110;12.138;2022-10-17T03:12:46;101728.63;;;14.25;100.00
16481;BME280;44634;54.110;12.138;2022-10-17T03:15:14;101745.97;;;14.29;100.00
16481;BME280;44634;54.110;12.138;2022-10-17T03:17:42;101750.66;;;14.46;100.00
16481;BME280;44634;54.110;12.138;2022-10-17T03:20:12;101763.47;;;14.22;100.00
16481;BME280;44634;54.110;12.138;2022-10-17T03:22:42;101790.13;;;14.01;100.00
16481;BME280;44634;54.110;12.138;2022-10-17T03:25:12;101808.22;;;14.07;100.00
16481;BME280;44634;54.110;12.138;2022-10-17T03:27:40;101831.44;;;13.75;100.00
16481;BME280;44634;54.110;12.138;2022-10-17T03:30:08;101867.56;;;14.08;100.00
16481;BME280;44634;54.110;12.138;2022-10-17T03:32:36;101879.69;;;14.21;100.00
16481;BME280;44634;54.110;12.138;2022-10-17T03:35:04;101838.28;;;14.38;100.00
16481;BME280;44634;54.110;12.138;2022-10-17T03:37:38;101804.50;;;14.19;100.00
16481;BME280;44634;54.110;12.138;2022-10-17T03:40:06;101796.38;;;14.30;100.00
16481;BME280;44634;54.110;12.138;2022-10-17T03:42:34;101775.47;;;14.56;100.00
16481;BME280;44634;54.110;12.138;2022-10-17T03:45:02;101762.88;;;14.58;100.00
16481;BME280;44634;54.110;12.138;2022-10-17T03:47:29;101756.44;;;14.61;100.00
16481;BME280;44634;54.110;12.138;2022-10-17T03:49:58;101752.06;;;14.60;100.00
16481;BME280;44634;54.110;12.138;2022-10-17T03:52:26;101767.06;;;14.51;100.00
16481;BME280;44634;54.110;12.138;2022-10-17T03:54:55;101819.69;;;14.08;100.00
16481;BME280;44634;54.110;12.138;2022-10-17T03:57:22;101895.41;;;14.04;100.00
16481;BME280;44634;54.110;12.138;2022-10-17T03:59:50;101941.69;;;14.22;100.00
16481;BME280;44634;54.110;12.138;2022-10-17T04:02:18;101966.47;;;14.22;100.00
16481;BME280;44634;54.110;12.138;2022-10-17T04:04:45;101980.94;;;14.81;100.00
16481;BME280;44634;54.110;12.138;2022-10-17T04:07:13;101955.78;;;15.14;100.00
16481;BME280;44634;54.110;12.138;2022-10-17T04:09:41;101973.44;;;14.96;100.00
16481;BME280;44634;54.110;12.138;2022-10-17T04:12:10;101994.97;;;14.83;100.00
16481;BME280;44634;54.110;12.138;2022-10-17T04:14:38;101975.94;;;14.97;100.00
16481;BME280;44634;54.110;12.138;2022-10-17T04:17:06;101974.13;;;14.98;100.00
16481;BME280;44634;54.110;12.138;2022-10-17T04:19:34;101961.72;;;15.27;100.00
16481;BME280;44634;54.110;12.138;2022-10-17T04:22:02;101888.22;;;15.54;100.00
16481;BME280;44634;54.110;12.138;2022-10-17T04:24:29;101846.78;;;15.88;100.00
16481;BME280;44634;54.110;12.138;2022-10-17T04:26:57;101815.75;;;15.97;100.00
16481;BME280;44634;54.110;12.138;2022-10-17T04:29:27;101802.09;;;15.53;100.00
16481;BME280;44634;54.110;12.138;2022-10-17T04:31:55;101831.44;;;15.24;100.00
16481;BME280;44634;54.110;12.138;2022-10-17T04:34:23;101879.50;;;15.03;100.00
16481;BME280;44634;54.110;12.138;2022-10-17T04:36:50;101931.97;;;15.12;100.00
16481;BME280;44634;54.110;12.138;2022-10-17T04:39:18;101976.63;;;14.59;100.00
16481;BME280;44634;54.110;12.138;2022-10-17T04:41:46;102003.59;;;15.15;100.00
16481;BME280;44634;54.110;12.138;2022-10-17T04:44:14;101982.28;;;15.06;100.00
16481;BME280;44634;54.110;12.138;2022-10-17T04:46:43;101947.69;;;15.25;100.00
16481;BME280;44634;54.110;12.138;2022-10-17T04:49:10;101913.06;;;15.73;100.00
16481;BME280;44634;54.110;12.138;2022-10-17T04:51:39;101861.03;;;15.50;100.00
16481;BME280;44634;54.110;12.138;2022-10-17T04:54:06;101845.44;;;15.45;100.00
16481;BME280;44634;54.110;12.138;2022-10-17T04:56:34;101845.28;;;15.47;100.00
16481;BME280;44634;54.110;12.138;2022-10-17T04:59:05;101847.94;;;15.47;100.00
16481;BME280;44634;54.110;12.138;2022-10-17T05:01:33;101845.31;;;15.28;100.00
16481;BME280;44634;54.110;12.138;2022-10-17T05:04:02;101831.31;;;15.06;100.00
16481;BME280;44634;54.110;12.138;2022-10-17T05:06:30;101833.13;;;15.25;100.00
16481;BME280;44634;54.110;12.138;2022-10-17T05:08:58;101798.44;;;15.44;100.00
16481;BME280;44634;54.110;12.138;2022-10-17T05:11:27;101806.06;;;15.20;100.00
16481;BME280;44634;54.110;12.138;2022-10-17T05:13:57;101813.63;;;15.25;100.00
16481;BME280;44634;54.110;12.138;2022-10-17T05:16:26;101817.84;;;14.98;100.00
16481;BME280;44634;54.110;12.138;2022-10-17T05:18:56;101831.59;;;15.23;100.00
16481;BME280;44634;54.110;12.138;2022-10-17T05:21:28;101828.75;;;15.14;100.00
16481;BME280;44634;54.110;12.138;2022-10-17T05:23:56;101822.59;;;15.04;100.00
16481;BME280;44634;54.110;12.138;2022-10-17T05:26:25;101826.81;;;15.16;100.00
16481;BME280;44634;54.110;12.138;2022-10-17T05:28:52;101814.59;;;15.14;100.00
16481;BME280;44634;54.110;12.138;2022-10-17T05:31:20;101814.16;;;15.18;100.00
16481;BME280;44634;54.110;12.138;2022-10-17T05:33:48;101811.94;;;15.04;100.00
16481;BME280;44634;54.110;12.138;2022-10-17T05:36:16;101815.31;;;15.26;100.00
16481;BME280;44634;54.110;12.138;2022-10-17T05:38:49;101812.50;;;15.08;100.00
16481;BME280;44634;54.110;12.138;2022-10-17T05:41:18;101798.63;;;15.14;100.00
16481;BME280;44634;54.110;12.138;2022-10-17T05:43:46;101783.72;;;15.31;100.00
16481;BME280;44634;54.110;12.138;2022-10-17T05:46:15;101755.16;;;15.04;100.00
16481;BME280;44634;54.110;12.138;2022-10-17T05:48:43;101764.69;;;15.35;100.00
16481;BME280;44634;54.110;12.138;2022-10-17T05:51:11;101735.72;;;15.60;100.00
16481;BME280;44634;54.110;12.138;2022-10-17T05:53:39;101729.66;;;15.21;100.00
16481;BME280;44634;54.110;12.138;2022-10-17T05:56:10;101751.66;;;15.13;100.00
16481;BME280;44634;54.110;12.138;2022-10-17T05:58:41;101741.09;;;15.31;100.00
16481;BME280;44634;54.110;12.138;2022-10-17T06:01:16;101713.13;;;15.07;100.00
16481;BME280;44634;54.110;12.138;2022-10-17T06:03:44;101717.03;;;15.23;100.00
16481;BME280;44634;54.110;12.138;2022-10-17T06:06:13;101708.66;;;15.45;100.00
16481;BME280;44634;54.110;12.138;2022-10-17T06:08:41;101701.78;;;15.52;100.00
16481;BME280;44634;54.110;12.138;2022-10-17T06:11:11;101689.91;;;15.37;100.00
16481;BME280;44634;54.110;12.138;2022-10-17T06:13:40;101676.22;;;15.59;100.00
16481;BME280;44634;54.110;12.138;2022-10-17T06:16:09;101682.31;;;15.42;100.00
16481;BME280;44634;54.110;12.138;2022-10-17T06:18:36;101686.94;;;15.40;100.00
16481;BME280;44634;54.110;12.138;2022-10-17T06:21:06;101667.47;;;15.39;100.00
16481;BME280;44634;54.110;12.138;2022-10-17T06:23:34;101659.63;;;15.28;100.00
16481;BME280;44634;54.110;12.138;2022-10-17T06:26:03;101642.88;;;15.45;100.00
16481;BME280;44634;54.110;12.138;2022-10-17T06:28:33;101639.38;;;15.45;100.00
16481;BME280;44634;54.110;12.138;2022-10-17T06:31:04;101625.84;;;15.66;100.00
16481;BME280;44634;54.110;12.138;2022-10-17T06:33:31;101608.94;;;15.75;100.00
16481;BME280;44634;54.110;12.138;2022-10-17T06:35:59;101594.63;;;15.48;100.00
16481;BME280;44634;54.110;12.138;2022-10-17T06:38:27;101584.47;;;15.34;100.00
16481;BME280;44634;54.110;12.138;2022-10-17T06:41:02;101590.25;;;16.20;100.00
16481;BME280;44634;54.110;12.138;2022-10-17T06:43:30;101579.50;;;15.94;100.00
16481;BME280;44634;54.110;12.138;2022-10-17T06:45:59;101512.44;;;16.59;100.00
16481;BME280;44634;54.110;12.138;2022-10-17T06:48:27;101508.66;;;16.18;100.00
16481;BME280;44634;54.110;12.138;2022-10-17T06:50:57;101475.38;;;16.04;100.00
16481;BME280;44634;54.110;12.138;2022-10-17T06:53:26;101468.13;;;16.66;100.00
16481;BME280;44634;54.110;12.138;2022-10-17T06:55:54;101485.28;;;16.12;100.00
16481;BME280;44634;54.110;12.138;2022-10-17T06:58:26;101504.34;;;15.99;100.00
16481;BME280;44634;54.110;12.138;2022-10-17T07:00:59;101507.66;;;16.36;100.00
16481;BME280;44634;54.110;12.138;2022-10-17T07:03:27;101480.41;;;16.07;100.00
16481;BME280;44634;54.110;12.138;2022-10-17T07:05:56;101491.81;;;16.17;100.00
16481;BME280;44634;54.110;12.138;2022-10-17T07:08:24;101505.72;;;15.85;100.00
16481;BME280;44634;54.110;12.138;2022-10-17T07:10:53;101502.16;;;15.94;100.00
16481;BME280;44634;54.110;12.138;2022-10-17T07:13:22;101496.50;;;15.97;100.00
16481;BME280;44634;54.110;12.138;2022-10-17T07:15:50;101494.75;;;16.06;100.00
16481;BME280;44634;54.110;12.138;2022-10-17T07:18:19;101487.66;;;16.41;100.00
16481;BME280;44634;54.110;12.138;2022-10-17T07:20:52;101477.53;;;16.26;100.00
16481;BME280;44634;54.110;12.138;2022-10-17T07:23:20;101477.75;;;16.07;100.00
16481;BME280;44634;54.110;12.138;2022-10-17T07:25:48;101487.50;;;16.42;100.00
16481;BME280;44634;54.110;12.138;2022-10-17T07:28:16;101450.00;;;16.52;100.00
16481;BME280;44634;54.110;12.138;2022-10-17T07:30:44;101439.63;;;16.75;100.00
16481;BME280;44634;54.110;12.138;2022-10-17T07:33:20;101417.75;;;17.21;100.00
16481;BME280;44634;54.110;12.138;2022-10-17T07:35:50;101395.03;;;17.09;100.00
16481;BME280;44634;54.110;12.138;2022-10-17T07:38:18;101383.34;;;17.27;100.00
16481;BME280;44634;54.110;12.138;2022-10-17T07:40:52;101373.16;;;17.63;100.00
16481;BME280;44634;54.110;12.138;2022-10-17T07:43:20;101358.66;;;17.73;100.00
16481;BME280;44634;54.110;12.138;2022-10-17T07:45:48;101363.78;;;18.55;100.00
16481;BME280;44634;54.110;12.138;2022-10-17T07:48:16;101369.06;;;18.32;100.00
16481;BME280;44634;54.110;12.138;2022-10-17T07:50:45;101379.72;;;18.87;100.00
16481;BME280;44634;54.110;12.138;2022-10-17T07:53:14;101411.97;;;19.02;100.00
16481;BME280;44634;54.110;12.138;2022-10-17T07:55:42;101436.91;;;18.71;100.00
16481;BME280;44634;54.110;12.138;2022-10-17T07:58:10;101440.25;;;18.73;100.00
16481;BME280;44634;54.110;12.138;2022-10-17T08:00:39;101464.09;;;18.99;100.00
16481;BME280;44634;54.110;12.138;2022-10-17T08:03:07;101463.81;;;18.86;100.00
16481;BME280;44634;54.110;12.138;2022-10-17T08:05:36;101513.56;;;18.81;100.00
16481;BME280;44634;54.110;12.138;2022-10-17T08:08:05;101482.16;;;18.42;100.00
16481;BME280;44634;54.110;12.138;2022-10-17T08:10:33;101480.94;;;18.61;100.00
16481;BME280;44634;54.110;12.138;2022-10-17T08:13:00;101485.97;;;19.42;100.00
16481;BME280;44634;54.110;12.138;2022-10-17T08:15:28;101500.03;;;19.13;100.00
16481;BME280;44634;54.110;12.138;2022-10-17T08:17:58;101513.41;;;20.21;100.00
16481;BME280;44634;54.110;12.138;2022-10-17T08:20:26;101565.81;;;20.17;100.00
16481;BME280;44634;54.110;12.138;2022-10-17T08:22:54;101546.41;;;20.07;100.00
16481;BME280;44634;54.110;12.138;2022-10-17T08:25:23;101589.94;;;20.48;100.00
16481;BME280;44634;54.110;12.138;2022-10-17T08:27:51;101621.81;;;21.03;100.00
16481;BME280;44634;54.110;12.138;2022-10-17T08:30:19;101628.59;;;20.99;100.00
16481;BME280;44634;54.110;12.138;2022-10-17T08:32:46;101634.06;;;20.68;100.00
16481;BME280;44634;54.110;12.138;2022-10-17T08:35:14;101650.59;;;20.80;100.00
16481;BME280;44634;54.110;12.138;2022-10-17T08:37:42;101659.59;;;20.72;100.00
16481;BME280;44634;54.110;12.138;2022-10-17T08:40:14;101662.41;;;20.94;100.00
16481;BME280;44634;54.110;12.138;2022-10-17T08:42:58;101637.50;;;21.15;100.00
16481;BME280;44634;54.110;12.138;2022-10-17T08:45:32;101660.78;;;20.70;100.00
16481;BME280;44634;54.110;12.138;2022-10-17T08:48:05;101707.06;;;22.06;100.00
16481;BME280;44634;54.110;12.138;2022-10-17T08:50:37;101725.50;;;22.24;100.00
16481;BME280;44634;54.110;12.138;2022-10-17T08:53:11;101666.19;;;21.37;100.00
16481;BME280;44634;54.110;12.138;2022-10-17T08:55:45;101630.97;;;21.09;100.00
16481;BME280;44634;54.110;12.138;2022-10-17T08:58:18;101572.25;;;20.08;100.00
16481;BME280;44634;54.110;12.138;2022-10-17T09:00:52;101531.09;;;20.53;100.00
16481;BME280;44634;54.110;12.138;2022-10-17T09:03:37;101626.63;;;21.67;100.00
16481;BME280;44634;54.110;12.138;2022-10-17T09:06:20;101642.31;;;21.63;100.00
16481;BME280;44634;54.110;12.138;2022-10-17T09:09:06;101580.63;;;21.18;100.00
16481;BME280;44634;54.110;12.138;2022-10-17T09:11:49;101640.72;;;21.69;100.00
16481;BME280;44634;54.110;12.138;2022-10-17T09:14:48;101641.56;;;23.19;100.00
16481;BME280;44634;54.110;12.138;2022-10-17T09:17:24;101738.63;;;23.40;100.00
16481;BME280;44634;54.110;12.138;2022-10-17T09:20:02;101722.44;;;23.40;100.00
16481;BME280;44634;54.110;12.138;2022-10-17T09:22:36;101690.69;;;21.72;100.00
16481;BME280;44634;54.110;12.138;2022-10-17T09:25:10;101674.47;;;22.37;100.00
16481;BME280;44634;54.110;12.138;2022-10-17T09:27:42;101647.41;;;22.45;100.00
16481;BME280;44634;54.110;12.138;2022-10-17T09:30:32;101592.16;;;21.98;100.00
16481;BME280;44634;54.110;12.138;2022-10-17T09:33:18;101540.88;;;21.13;100.00
16481;BME280;44634;54.110;12.138;2022-10-17T09:36:12;101532.91;;;20.90;100.00
16481;BME280;44634;54.110;12.138;2022-10-17T09:38:42;101499.84;;;21.26;100.00
16481;BME280;44634;54.110;12.138;2022-10-17T09:41:16;101516.91;;;21.18;100.00
16481;BME280;44634;54.110;12.138;2022-10-17T09:44:13;101492.63;;;21.12;100.00
16481;BME280;44634;54.110;12.138;2022-10-17T09:46:50;101470.13;;;21.49;100.00
16481;BME280;44634;54.110;12.138;2022-10-17T09:49:30;101514.34;;;20.95;100.00
16481;BME280;44634;54.110;12.138;2022-10-17T09:51:59;101511.00;;;21.59;100.00
16481;BME280;44634;54.110;12.138;2022-10-17T09:54:35;101543.69;;;21.98;100.00
16481;BME280;44634;54.110;12.138;2022-10-17T09:57:07;101625.72;;;23.51;100.00
16481;BME280;44634;54.110;12.138;2022-10-17T09:59:37;101669.44;;;23.67;100.00
16481;BME280;44634;54.110;12.138;2022-10-17T10:02:15;101697.47;;;23.60;100.00
16481;BME280;44634;54.110;12.138;2022-10-17T10:04:57;101723.88;;;24.19;100.00
16481;BME280;44634;54.110;12.138;2022-10-17T10:07:33;101717.38;;;24.81;100.00
16481;BME280;44634;54.110;12.138;2022-10-17T10:10:04;101738.44;;;24.24;100.00
16481;BME280;44634;54.110;12.138;2022-10-17T10:12:34;101735.66;;;24.72;100.00
16481;BME280;44634;54.110;12.138;2022-10-17T10:15:30;101742.97;;;24.98;100.00
16481;BME280;44634;54.110;12.138;2022-10-17T10:18:00;101740.66;;;25.61;100.00
16481;BME280;44634;54.110;12.138;2022-10-17T10:20:31;101736.91;;;24.70;100.00
16481;BME280;44634;54.110;12.138;2022-10-17T10:23:10;101710.00;;;23.81;100.00
16481;BME280;44634;54.110;12.138;2022-10-17T10:25:48;101735.19;;;24.42;100.00
16481;BME280;44634;54.110;12.138;2022-10-17T10:28:19;101725.41;;;24.41;100.00
16481;BME280;44634;54.110;12.138;2022-10-17T10:30:49;101699.47;;;23.99;100.00
16481;BME280;44634;54.110;12.138;2022-10-17T10:33:19;101629.13;;;22.90;100.00
16481;BME280;44634;54.110;12.138;2022-10-17T10:35:54;101615.28;;;23.34;100.00
16481;BME280;44634;54.110;12.138;2022-10-17T10:38:23;101608.97;;;23.21;100.00
16481;BME280;44634;54.110;12.138;2022-10-17T10:40:53;101661.53;;;24.20;100.00
16481;BME280;44634;54.110;12.138;2022-10-17T10:43:26;101672.97;;;24.22;100.00
16481;BME280;44634;54.110;12.138;2022-10-17T10:45:58;101656.22;;;23.79;100.00
16481;BME280;44634;54.110;12.138;2022-10-17T10:48:30;101649.13;;;24.32;100.00
16481;BME280;44634;54.110;12.138;2022-10-17T10:51:01;101667.72;;;24.14;100.00
16481;BME280;44634;54.110;12.138;2022-10-17T10:53:42;101654.94;;;24.96;100.00
16481;BME280;44634;54.110;12.138;2022-10-17T10:56:15;101713.63;;;24.69;100.00
16481;BME280;44634;54.110;12.138;2022-10-17T10:58:52;101694.28;;;24.78;100.00
16481;BME280;44634;54.110;12.138;2022-10-17T11:01:26;101681.38;;;25.07;100.00
16481;BME280;44634;54.110;12.138;2022-10-17T11:04:07;101659.63;;;23.25;100.00
16481;BME280;44634;54.110;12.138;2022-10-17T11:06:42;101615.53;;;23.46;100.00
16481;BME280;44634;54.110;12.138;2022-10-17T11:09:18;101605.56;;;23.88;100.00
16481;BME280;44634;54.110;12.138;2022-10-17T11:11:59;101591.84;;;23.00;100.00
16481;BME280;44634;54.110;12.138;2022-10-17T11:14:37;101611.50;;;23.63;100.00
16481;BME280;44634;54.110;12.138;2022-10-17T11:17:18;101576.88;;;23.32;100.00
16481;BME280;44634;54.110;12.138;2022-10-17T11:20:01;101607.34;;;23.67;100.00
16481;BME280;44634;54.110;12.138;2022-10-17T11:22:31;101559.28;;;23.50;100.00
16481;BME280;44634;54.110;12.138;2022-10-17T11:25:04;101583.41;;;23.58;100.00
16481;BME280;44634;54.110;12.138;2022-10-17T11:27:33;101607.72;;;24.39;100.00
16481;BME280;44634;54.110;12.138;2022-10-17T11:30:00;101652.94;;;23.97;100.00
16481;BME280;44634;54.110;12.138;2022-10-17T11:32:34;101626.88;;;24.63;100.00
16481;BME280;44634;54.110;12.138;2022-10-17T11:35:13;101616.47;;;23.60;100.00
16481;BME280;44634;54.110;12.138;2022-10-17T11:37:45;101640.16;;;24.32;100.00
16481;BME280;44634;54.110;12.138;2022-10-17T11:40:20;101616.47;;;24.54;100.00
16481;BME280;44634;54.110;12.138;2022-10-17T11:42:53;101659.34;;;25.03;100.00
16481;BME280;44634;54.110;12.138;2022-10-17T11:45:26;101664.75;;;25.03;100.00
16481;BME280;44634;54.110;12.138;2022-10-17T11:48:00;101632.25;;;24.57;100.00
16481;BME280;44634;54.110;12.138;2022-10-17T11:50:32;101642.66;;;24.86;100.00
16481;BME280;44634;54.110;12.138;2022-10-17T11:53:22;101713.84;;;26.04;100.00
16481;BME280;44634;54.110;12.138;2022-10-17T11:55:52;101746.91;;;26.89;100.00
16481;BME280;44634;54.110;12.138;2022-10-17T11:58:27;101732.53;;;26.19;100.00
16481;BME280;44634;54.110;12.138;2022-10-17T12:01:06;101783.81;;;27.72;100.00
16481;BME280;44634;54.110;12.138;2022-10-17T12:03:45;101781.41;;;27.57;100.00
16481;BME280;44634;54.110;12.138;2022-10-17T12:06:21;101759.34;;;26.72;100.00
16481;BME280;44634;54.110;12.138;2022-10-17T12:09:00;101754.03;;;26.14;100.00
16481;BME280;44634;54.110;12.138;2022-10-17T12:11:41;101762.44;;;26.44;100.00
16481;BME280;44634;54.110;12.138;2022-10-17T12:14:35;101729.38;;;25.58;100.00
16481;BME280;44634;54.110;12.138;2022-10-17T12:17:04;101717.28;;;25.67;100.00
16481;BME280;44634;54.110;12.138;2022-10-17T12:19:34;101708.44;;;24.93;100.00
16481;BME280;44634;54.110;12.138;2022-10-17T12:24:56;101666.19;;;25.12;100.00
16481;BME280;44634;54.110;12.138;2022-10-17T12:27:42;101608.00;;;23.83;100.00
16481;BME280;44634;54.110;12.138;2022-10-17T12:30:29;101636.63;;;24.78;100.00
16481;BME280;44634;54.110;12.138;2022-10-17T12:33:17;101618.47;;;24.12;100.00
16481;BME280;44634;54.110;12.138;2022-10-17T12:35:48;101581.44;;;23.99;100.00
16481;BME280;44634;54.110;12.138;2022-10-17T12:38:23;101551.94;;;23.98;100.00
16481;BME280;44634;54.110;12.138;2022-10-17T12:40:53;101568.44;;;24.36;100.00
16481;BME280;44634;54.110;12.138;2022-10-17T12:46:54;101592.28;;;24.99;100.00
16481;BME280;44634;54.110;12.138;2022-10-17T12:49:46;101601.22;;;25.19;100.00
16481;BME280;44634;54.110;12.138;2022-10-17T12:55:12;101644.41;;;25.52;100.00
16481;BME280;44634;54.110;12.138;2022-10-17T12:57:49;101639.63;;;25.54;100.00
16481;BME280;44634;54.110;12.138;2022-10-17T13:00:22;101620.19;;;25.70;100.00
16481;BME280;44634;54.110;12.138;2022-10-17T13:02:53;101624.78;;;25.63;100.00
16481;BME280;44634;54.110;12.138;2022-10-17T13:05:26;101617.00;;;25.35;100.00